createdAt,value
2018-03-28T00:01:43.896Z,4.30
2018-03-28T00:04:12.159Z,4.44
2018-03-28T00:06:40.400Z,4.22
2018-03-28T00:09:08.669Z,4.34
2018-03-28T00:11:36.932Z,4.20
2018-03-28T00:14:05.963Z,4.29
2018-03-28T00:16:35.573Z,4.26
2018-03-28T00:19:03.824Z,4.25
2018-03-28T00:21:32.928Z,4.03
2018-03-28T00:24:01.962Z,3.88
2018-03-28T00:26:31.352Z,4.15
2018-03-28T00:28:59.616Z,4.01
2018-03-28T00:31:28.626Z,4.20
2018-03-28T00:33:56.893Z,4.04
2018-03-28T00:36:25.921Z,4.14
2018-03-28T00:38:54.185Z,4.10
2018-03-28T00:41:22.422Z,4.09
2018-03-28T00:43:50.685Z,4.11
2018-03-28T00:46:20.570Z,4.09
2018-03-28T00:48:48.833Z,3.89
2018-03-28T00:51:34.612Z,3.90
2018-03-28T00:54:02.876Z,3.90
2018-03-28T00:56:33.144Z,3.80
2018-03-28T00:59:01.387Z,3.82
2018-03-28T01:01:30.419Z,3.80
2018-03-28T01:03:58.660Z,3.66
2018-03-28T01:06:27.672Z,3.62
2018-03-28T01:08:55.944Z,3.54
2018-03-28T01:11:24.969Z,3.59
2018-03-28T01:13:53.283Z,3.63
2018-03-28T01:16:21.568Z,3.61
2018-03-28T01:18:49.805Z,3.61
2018-03-28T01:21:18.052Z,3.61
2018-03-28T01:23:46.333Z,3.64
2018-03-28T01:26:14.574Z,3.61
2018-03-28T01:28:42.825Z,3.63
2018-03-28T01:31:11.093Z,3.67
2018-03-28T01:33:39.347Z,3.76
2018-03-28T01:36:07.612Z,3.75
2018-03-28T01:38:35.869Z,3.71
2018-03-28T01:41:04.132Z,3.72
2018-03-28T01:43:32.406Z,3.80
2018-03-28T01:46:01.420Z,3.72
2018-03-28T01:48:29.672Z,3.89
2018-03-28T01:50:58.696Z,3.88
2018-03-28T01:53:26.940Z,3.85
2018-03-28T01:55:55.961Z,3.72
2018-03-28T01:58:24.219Z,3.62
2018-03-28T02:00:53.241Z,3.67
2018-03-28T02:03:21.513Z,3.74
2018-03-28T02:05:50.521Z,3.75
2018-03-28T02:08:18.789Z,3.83
2018-03-28T02:10:47.042Z,3.82
2018-03-28T02:13:15.286Z,3.85
2018-03-28T02:15:43.550Z,3.79
2018-03-28T02:18:11.822Z,3.93
2018-03-28T02:20:41.316Z,3.99
2018-03-28T02:23:09.575Z,4.22
2018-03-28T02:25:38.604Z,4.01
2018-03-28T02:28:06.863Z,4.08
2018-03-28T02:30:36.315Z,3.94
2018-03-28T02:33:04.559Z,3.86
2018-03-28T02:35:33.569Z,3.77
2018-03-28T02:38:01.937Z,3.83
2018-03-28T02:40:30.956Z,3.84
2018-03-28T02:42:59.254Z,4.00
2018-03-28T02:45:28.236Z,4.22
2018-03-28T02:47:56.477Z,4.29
2018-03-28T02:50:24.741Z,4.18
2018-03-28T02:52:54.427Z,4.25
2018-03-28T02:55:22.668Z,4.22
2018-03-28T02:57:51.695Z,4.13
2018-03-28T03:00:19.947Z,4.14
2018-03-28T03:02:48.960Z,3.97
2018-03-28T03:05:17.214Z,4.26
2018-03-28T03:07:46.249Z,4.32
2018-03-28T03:10:14.494Z,4.27
2018-03-28T03:12:43.516Z,4.38
2018-03-28T03:15:11.762Z,4.03
2018-03-28T03:17:40.790Z,4.12
2018-03-28T03:20:09.047Z,4.18
2018-03-28T03:22:38.061Z,4.24
2018-03-28T03:25:06.329Z,3.91
2018-03-28T03:27:35.358Z,4.01
2018-03-28T03:30:03.623Z,4.40
2018-03-28T03:32:32.625Z,4.40
2018-03-28T03:35:01.760Z,4.56
2018-03-28T03:37:30.006Z,4.54
2018-03-28T03:39:58.268Z,4.40
2018-03-28T03:42:27.321Z,4.31
2018-03-28T03:44:55.586Z,4.23
2018-03-28T03:47:23.824Z,4.52
2018-03-28T03:49:52.848Z,4.22
2018-03-28T03:52:21.104Z,4.27
2018-03-28T03:54:50.121Z,4.21
2018-03-28T03:57:18.381Z,4.65
2018-03-28T03:59:47.398Z,4.80
2018-03-28T04:02:15.656Z,4.88
2018-03-28T04:04:44.676Z,4.91
2018-03-28T04:07:13.119Z,4.89
2018-03-28T04:09:41.380Z,4.89
2018-03-28T04:12:09.664Z,4.91
2018-03-28T04:14:39.632Z,4.97
2018-03-28T04:17:07.896Z,5.00
2018-03-28T04:19:36.912Z,5.00
2018-03-28T04:22:05.152Z,4.95
2018-03-28T04:24:33.423Z,5.08
2018-03-28T04:27:01.678Z,5.16
2018-03-28T04:29:29.920Z,5.01
2018-03-28T04:31:58.199Z,5.08
2018-03-28T04:34:27.195Z,5.16
2018-03-28T04:36:56.263Z,5.19
2018-03-28T04:39:24.517Z,5.12
2018-03-28T04:41:52.763Z,5.20
2018-03-28T04:44:21.780Z,5.19
2018-03-28T04:46:50.034Z,5.25
2018-03-28T04:49:19.134Z,5.33
2018-03-28T04:51:48.354Z,5.30
2018-03-28T04:54:16.605Z,5.31
2018-03-28T04:56:45.620Z,5.42
2018-03-28T04:59:14.761Z,5.44
2018-03-28T05:01:42.998Z,5.48
2018-03-28T05:04:11.332Z,5.61
2018-03-28T05:06:40.512Z,5.51
2018-03-28T05:09:08.760Z,5.60
2018-03-28T05:11:37.772Z,5.66
2018-03-28T05:14:06.032Z,5.76
2018-03-28T05:16:35.046Z,5.75
2018-03-28T05:19:03.284Z,5.79
2018-03-28T05:21:33.146Z,5.95
2018-03-28T05:24:01.384Z,5.87
2018-03-28T05:26:29.620Z,5.84
2018-03-28T05:28:57.876Z,5.93
2018-03-28T05:31:26.127Z,5.93
2018-03-28T05:33:54.361Z,5.95
2018-03-28T05:36:22.612Z,5.89
2018-03-28T05:38:50.865Z,5.95
2018-03-28T05:41:19.106Z,6.07
2018-03-28T05:43:47.352Z,6.20
2018-03-28T05:46:15.612Z,6.21
2018-03-28T05:48:44.639Z,6.20
2018-03-28T05:51:12.903Z,6.30
2018-03-28T05:53:41.923Z,6.29
2018-03-28T05:56:10.177Z,6.39
2018-03-28T05:58:39.206Z,6.42
2018-03-28T06:01:07.451Z,6.57
2018-03-28T06:03:36.709Z,6.61
2018-03-28T06:06:04.958Z,6.72
2018-03-28T06:08:33.192Z,6.66
2018-03-28T06:11:01.455Z,7.01
2018-03-28T06:13:29.720Z,7.22
2018-03-28T06:15:57.964Z,7.22
2018-03-28T06:18:27.017Z,7.24
2018-03-28T06:20:55.224Z,7.36
2018-03-28T06:23:23.476Z,7.50
2018-03-28T06:25:51.728Z,7.81
2018-03-28T06:28:19.980Z,8.05
2018-03-28T06:30:48.987Z,7.97
2018-03-28T06:33:17.240Z,8.09
2018-03-28T06:35:45.497Z,8.30
2018-03-28T06:38:13.733Z,8.50
2018-03-28T06:40:42.001Z,9.08
2018-03-28T06:43:11.048Z,10.19
2018-03-28T06:45:39.307Z,11.45
2018-03-28T06:48:07.571Z,12.91
2018-03-28T06:50:35.820Z,14.27
2018-03-28T06:53:04.839Z,15.25
2018-03-28T06:55:33.159Z,15.90
2018-03-28T06:58:02.129Z,14.88
2018-03-28T07:00:30.389Z,14.34
2018-03-28T07:02:59.412Z,13.87
2018-03-28T07:05:27.655Z,13.36
2018-03-28T07:07:56.698Z,14.26
2018-03-28T07:10:24.972Z,14.78
2018-03-28T07:12:53.216Z,13.88
2018-03-28T07:15:22.232Z,14.07
2018-03-28T07:17:52.176Z,14.53
2018-03-28T07:20:20.441Z,13.37
2018-03-28T07:22:48.708Z,12.67
2018-03-28T07:25:16.981Z,12.76
2018-03-28T07:27:46.002Z,12.87
2018-03-28T07:30:15.257Z,13.29
2018-03-28T07:32:43.503Z,11.96
2018-03-28T07:35:11.745Z,11.14
2018-03-28T07:37:40.768Z,10.63
2018-03-28T07:40:09.028Z,10.87
2018-03-28T07:42:38.037Z,11.06
2018-03-28T07:45:06.301Z,11.00
2018-03-28T07:47:35.320Z,11.21
2018-03-28T07:50:03.576Z,13.15
2018-03-28T07:52:32.608Z,14.90
2018-03-28T07:55:00.864Z,15.11
2018-03-28T07:57:29.120Z,15.68
2018-03-28T07:59:57.399Z,15.99
2018-03-28T08:02:25.645Z,15.32
2018-03-28T08:04:53.903Z,15.99
2018-03-28T08:07:22.179Z,14.08
2018-03-28T08:09:50.438Z,15.18
2018-03-28T08:12:19.448Z,16.32
2018-03-28T08:14:47.722Z,14.99
2018-03-28T08:17:16.736Z,13.22
2018-03-28T08:19:44.992Z,12.41
2018-03-28T08:22:14.020Z,12.07
2018-03-28T08:24:42.269Z,11.65
2018-03-28T08:27:11.306Z,12.42
2018-03-28T08:29:39.547Z,12.60
2018-03-28T08:32:09.813Z,13.79
2018-03-28T08:34:38.060Z,13.73
2018-03-28T08:37:07.076Z,13.99
2018-03-28T08:39:35.364Z,14.72
2018-03-28T08:42:03.616Z,13.82
2018-03-28T08:44:32.634Z,13.36
2018-03-28T08:47:00.904Z,12.96
2018-03-28T08:49:29.152Z,12.49
2018-03-28T08:51:57.406Z,12.60
2018-03-28T08:54:25.682Z,11.67
2018-03-28T08:56:53.929Z,11.06
2018-03-28T08:59:22.176Z,11.21
2018-03-28T09:01:50.454Z,11.27
2018-03-28T09:04:18.694Z,11.72
2018-03-28T09:06:48.177Z,11.29
2018-03-28T09:09:16.439Z,10.75
2018-03-28T09:11:45.452Z,10.54
2018-03-28T09:14:13.700Z,10.70
2018-03-28T09:16:41.964Z,10.57
2018-03-28T09:19:10.209Z,10.80
2018-03-28T09:21:38.472Z,11.34
2018-03-28T09:24:08.082Z,11.22
2018-03-28T09:26:36.336Z,11.05
2018-03-28T09:29:04.600Z,10.69
2018-03-28T09:31:32.853Z,10.64
2018-03-28T09:34:01.098Z,10.77
2018-03-28T09:36:30.116Z,10.46
2018-03-28T09:38:58.361Z,10.31
2018-03-28T09:41:27.385Z,10.40
2018-03-28T09:43:55.636Z,10.51
2018-03-28T09:46:24.649Z,10.69
2018-03-28T09:48:53.668Z,10.81
2018-03-28T09:51:21.913Z,10.78
2018-03-28T09:53:50.943Z,10.94
2018-03-28T09:56:19.189Z,11.05
2018-03-28T09:58:48.208Z,10.88
2018-03-28T10:01:22.001Z,10.56
2018-03-28T10:03:51.007Z,11.20
2018-03-28T10:06:19.260Z,11.89
2018-03-28T10:08:47.524Z,15.72
2018-03-28T10:11:15.777Z,17.90
2018-03-28T10:13:44.028Z,19.18
2018-03-28T10:16:13.049Z,17.14
2018-03-28T10:18:41.936Z,15.36
2018-03-28T10:21:10.186Z,14.13
2018-03-28T10:23:39.196Z,14.24
2018-03-28T10:26:08.215Z,14.08
2018-03-28T10:28:36.473Z,13.17
2018-03-28T10:31:05.492Z,14.19
2018-03-28T10:33:33.759Z,15.18
2018-03-28T10:36:02.793Z,15.03
2018-03-28T10:38:31.052Z,13.49
2018-03-28T10:40:59.316Z,12.41
2018-03-28T10:43:28.336Z,12.38
2018-03-28T10:45:56.593Z,12.38
2018-03-28T10:48:24.844Z,12.63
2018-03-28T10:50:53.106Z,12.92
2018-03-28T10:53:21.373Z,12.94
2018-03-28T10:55:49.628Z,12.78
2018-03-28T10:58:17.992Z,13.10
2018-03-28T11:00:46.249Z,12.90
2018-03-28T11:03:14.497Z,13.34
2018-03-28T11:05:42.760Z,13.77
2018-03-28T11:08:11.016Z,13.64
2018-03-28T11:10:39.275Z,13.65
2018-03-28T11:13:08.303Z,13.30
2018-03-28T11:15:36.580Z,12.67
2018-03-28T11:18:04.824Z,12.62
2018-03-28T11:20:33.098Z,11.85
2018-03-28T11:23:01.345Z,11.61
2018-03-28T11:25:29.606Z,11.97
2018-03-28T11:27:57.856Z,12.07
2018-03-28T11:30:26.115Z,11.53
2018-03-28T11:32:54.365Z,11.72
2018-03-28T11:35:22.627Z,12.34
2018-03-28T11:37:50.886Z,12.73
2018-03-28T11:40:19.903Z,12.14
2018-03-28T11:42:48.178Z,12.29
2018-03-28T11:45:16.437Z,12.53
2018-03-28T11:47:45.458Z,12.09
2018-03-28T11:50:13.704Z,12.10
2018-03-28T11:52:41.958Z,12.60
2018-03-28T11:55:10.200Z,12.68
2018-03-28T11:57:38.464Z,12.47
2018-03-28T12:00:07.493Z,12.58
2018-03-28T12:02:35.744Z,12.26
2018-03-28T12:05:04.756Z,11.92
2018-03-28T12:07:33.027Z,11.99
2018-03-28T12:10:02.046Z,12.42
2018-03-28T12:12:30.300Z,12.36
2018-03-28T12:14:59.342Z,12.79
2018-03-28T12:17:27.592Z,13.11
2018-03-28T12:19:55.852Z,13.28
2018-03-28T12:22:24.888Z,14.02
2018-03-28T12:24:53.136Z,14.19
2018-03-28T12:27:22.158Z,14.76
2018-03-28T12:29:50.416Z,14.15
2018-03-28T12:32:19.240Z,13.61
2018-03-28T12:34:47.489Z,14.02
2018-03-28T12:37:15.738Z,13.45
2018-03-28T12:39:44.000Z,12.92
2018-03-28T12:42:12.511Z,12.98
2018-03-28T12:44:40.767Z,13.01
2018-03-28T12:47:09.038Z,13.50
2018-03-28T12:49:37.293Z,13.22
2018-03-28T12:52:05.568Z,13.89
2018-03-28T12:54:33.816Z,13.76
2018-03-28T12:57:02.069Z,13.63
2018-03-28T12:59:30.335Z,13.75
2018-03-28T13:01:58.575Z,14.06
2018-03-28T13:04:27.604Z,13.93
2018-03-28T13:06:56.699Z,14.51
2018-03-28T13:09:24.952Z,14.78
2018-03-28T13:11:53.983Z,14.51
2018-03-28T13:14:22.250Z,14.41
2018-03-28T13:16:50.514Z,14.07
2018-03-28T13:19:18.775Z,14.18
2018-03-28T13:21:47.052Z,14.34
2018-03-28T13:24:15.301Z,14.02
2018-03-28T13:26:43.552Z,14.08
2018-03-28T13:29:11.811Z,13.61
2018-03-28T13:31:40.840Z,13.44
2018-03-28T13:34:09.753Z,13.21
2018-03-28T13:36:38.016Z,13.13
2018-03-28T13:39:06.261Z,13.59
2018-03-28T13:41:35.283Z,13.32
2018-03-28T13:44:03.546Z,13.02
2018-03-28T13:46:32.564Z,12.94
2018-03-28T13:49:00.840Z,12.66
2018-03-28T13:51:29.122Z,12.48
2018-03-28T13:53:57.383Z,12.73
2018-03-28T13:56:26.400Z,13.02
2018-03-28T13:58:54.674Z,12.86
2018-03-28T14:01:22.924Z,12.87
2018-03-28T14:03:51.958Z,13.28
2018-03-28T14:06:20.200Z,13.63
2018-03-28T14:08:48.472Z,13.92
2018-03-28T14:11:16.726Z,14.31
2018-03-28T14:13:44.987Z,14.08
2018-03-28T14:16:13.241Z,13.71
2018-03-28T14:18:42.261Z,13.57
2018-03-28T14:21:10.540Z,13.48
2018-03-28T14:23:38.791Z,13.79
2018-03-28T14:26:07.303Z,13.29
2018-03-28T14:28:35.573Z,13.06
2018-03-28T14:31:03.844Z,13.13
2018-03-28T14:33:32.872Z,13.46
2018-03-28T14:36:01.129Z,13.39
2018-03-28T14:38:30.149Z,13.24
2018-03-28T14:41:00.348Z,13.54
2018-03-28T14:43:29.455Z,13.27
2018-03-28T14:45:57.714Z,13.35
2018-03-28T14:48:26.724Z,13.53
2018-03-28T14:50:55.767Z,13.07
2018-03-28T14:53:24.021Z,12.71
2018-03-28T14:55:52.274Z,12.43
2018-03-28T14:58:22.535Z,12.40
2018-03-28T15:00:50.788Z,12.22
2018-03-28T15:03:19.812Z,12.01
2018-03-28T15:05:48.058Z,11.85
2018-03-28T15:08:17.067Z,11.69
2018-03-28T15:10:45.336Z,11.69
2018-03-28T15:13:14.440Z,11.47
2018-03-28T15:15:42.638Z,11.62
2018-03-28T15:18:10.900Z,11.41
2018-03-28T15:20:39.918Z,11.34
2018-03-28T15:23:08.180Z,11.28
2018-03-28T15:25:37.215Z,11.05
2018-03-28T15:28:05.476Z,10.79
2018-03-28T15:30:33.740Z,10.60
2018-03-28T15:33:02.750Z,10.53
2018-03-28T15:35:31.005Z,10.45
2018-03-28T15:38:00.032Z,10.35
2018-03-28T15:40:28.292Z,10.33
2018-03-28T15:42:57.311Z,10.21
2018-03-28T15:45:25.568Z,10.07
2018-03-28T15:47:54.588Z,10.19
2018-03-28T15:50:22.832Z,10.19
2018-03-28T15:52:51.861Z,10.18
2018-03-28T15:55:20.111Z,10.32
2018-03-28T15:57:49.160Z,10.37
2018-03-28T16:00:17.436Z,10.36
2018-03-28T16:02:45.680Z,10.28
2018-03-28T16:05:14.708Z,10.26
2018-03-28T16:07:42.966Z,10.24
2018-03-28T16:10:11.980Z,10.22
2018-03-28T16:12:40.323Z,10.01
2018-03-28T16:15:08.480Z,10.03
2018-03-28T16:17:36.724Z,9.96
2018-03-28T16:20:04.992Z,10.04
2018-03-28T16:22:34.608Z,9.98
2018-03-28T16:25:02.854Z,9.96
2018-03-28T16:27:31.096Z,10.03
2018-03-28T16:29:59.364Z,10.12
2018-03-28T16:32:27.617Z,10.25
2018-03-28T16:34:55.881Z,10.17
2018-03-28T16:37:24.900Z,10.18
2018-03-28T16:39:53.151Z,9.95
2018-03-28T16:42:22.167Z,9.94
2018-03-28T16:44:51.197Z,9.83
2018-03-28T16:47:19.436Z,9.72
2018-03-28T16:49:48.463Z,9.69
2018-03-28T16:52:16.700Z,9.68
2018-03-28T16:54:46.249Z,9.43
2018-03-28T16:57:14.517Z,9.29
2018-03-28T16:59:42.745Z,9.26
2018-03-28T17:02:10.997Z,9.25
2018-03-28T17:04:39.508Z,9.17
2018-03-28T17:07:07.767Z,9.12
2018-03-28T17:09:35.992Z,9.06
2018-03-28T17:12:04.248Z,9.10
2018-03-28T17:14:32.506Z,9.10
2018-03-28T17:17:01.531Z,9.13
2018-03-28T17:19:29.779Z,9.10
2018-03-28T17:21:58.035Z,9.03
2018-03-28T17:24:27.047Z,8.85
2018-03-28T17:26:56.045Z,8.93
2018-03-28T17:29:24.312Z,8.89
2018-03-28T17:31:53.323Z,8.99
2018-03-28T17:34:21.571Z,8.88
2018-03-28T17:36:49.872Z,9.02
2018-03-28T17:39:18.125Z,9.28
2018-03-28T17:41:46.414Z,9.18
2018-03-28T17:44:14.640Z,9.31
2018-03-28T17:46:42.892Z,8.89
2018-03-28T17:49:11.913Z,9.05
2018-03-28T17:51:40.156Z,9.09
2018-03-28T17:54:09.184Z,8.98
2018-03-28T17:56:37.420Z,8.94
2018-03-28T17:59:05.655Z,8.92
2018-03-28T18:01:34.188Z,9.03
2018-03-28T18:04:02.424Z,8.96
2018-03-28T18:06:30.671Z,8.95
2018-03-28T18:08:59.695Z,8.97
2018-03-28T18:11:27.952Z,8.94
2018-03-28T18:13:56.956Z,8.81
2018-03-28T18:16:25.228Z,8.81
2018-03-28T18:18:55.486Z,8.79
2018-03-28T18:21:23.789Z,8.81
2018-03-28T18:23:52.755Z,8.68
2018-03-28T18:26:20.996Z,9.01
2018-03-28T18:28:50.026Z,8.76
2018-03-28T18:31:18.277Z,8.57
2018-03-28T18:33:47.288Z,8.57
2018-03-28T18:36:15.553Z,8.66
2018-03-28T18:38:44.582Z,8.51
2018-03-28T18:41:12.820Z,8.42
2018-03-28T18:43:41.085Z,8.74
2018-03-28T18:46:09.348Z,8.87
2018-03-28T18:48:37.585Z,8.92
2018-03-28T18:51:07.844Z,8.64
2018-03-28T18:53:36.091Z,8.76
2018-03-28T18:56:05.109Z,8.72
2018-03-28T18:58:33.354Z,8.87
2018-03-28T19:01:02.900Z,8.62
2018-03-28T19:03:31.156Z,8.60
2018-03-28T19:06:00.170Z,8.90
2018-03-28T19:08:28.408Z,8.65
2018-03-28T19:10:56.676Z,8.57
2018-03-28T19:13:24.923Z,8.43
2018-03-28T19:15:53.280Z,8.37
2018-03-28T19:18:22.284Z,8.33
2018-03-28T19:20:50.784Z,8.28
2018-03-28T19:23:19.028Z,8.33
2018-03-28T19:25:48.051Z,8.26
2018-03-28T19:28:16.311Z,8.24
2018-03-28T19:30:45.324Z,8.23
2018-03-28T19:33:13.657Z,8.22
2018-03-28T19:35:41.900Z,8.21
2018-03-28T19:38:10.144Z,8.34
2018-03-28T19:40:39.170Z,8.25
2018-03-28T19:43:08.024Z,8.20
2018-03-28T19:45:36.308Z,8.19
2018-03-28T19:48:04.544Z,8.67
2018-03-28T19:50:32.787Z,8.48
2018-03-28T19:53:01.076Z,8.48
2018-03-28T19:55:30.075Z,8.65
2018-03-28T19:57:58.337Z,8.81
2018-03-28T20:00:27.437Z,8.51
2018-03-28T20:02:55.684Z,8.35
2018-03-28T20:05:23.944Z,8.45
2018-03-28T20:07:52.191Z,8.42
2018-03-28T20:10:21.229Z,8.30
2018-03-28T20:12:49.480Z,8.41
2018-03-28T20:15:17.728Z,8.31
2018-03-28T20:17:46.756Z,8.26
2018-03-28T20:20:15.000Z,8.26
2018-03-28T20:22:43.254Z,8.18
2018-03-28T20:25:11.502Z,8.18
2018-03-28T20:27:39.758Z,8.11
2018-03-28T20:30:08.779Z,8.08
2018-03-28T20:32:37.041Z,8.45
2018-03-28T20:35:06.056Z,8.61
2018-03-28T20:37:34.321Z,8.65
2018-03-28T20:40:03.330Z,8.39
2018-03-28T20:42:31.590Z,8.52
2018-03-28T20:45:00.606Z,8.42
2018-03-28T20:47:28.841Z,8.43
2018-03-28T20:49:57.088Z,8.38
2018-03-28T20:52:25.333Z,8.25
2018-03-28T20:54:54.352Z,8.21
2018-03-28T20:57:23.445Z,8.17
2018-03-28T20:59:51.684Z,8.10
2018-03-28T21:02:20.041Z,8.00
2018-03-28T21:04:48.289Z,7.95
2018-03-28T21:07:16.535Z,8.10
2018-03-28T21:09:44.792Z,8.28
2018-03-28T21:12:13.037Z,8.50
2018-03-28T21:14:41.275Z,8.36
2018-03-28T21:17:10.303Z,8.09
2018-03-28T21:19:38.596Z,7.98
2018-03-28T21:22:06.849Z,8.02
2018-03-28T21:24:35.861Z,8.24
2018-03-28T21:27:04.109Z,8.38
2018-03-28T21:29:32.349Z,8.61
2018-03-28T21:32:00.603Z,8.50
2018-03-28T21:34:29.041Z,8.59
2018-03-28T21:36:58.072Z,8.61
2018-03-28T21:39:26.342Z,8.68
2018-03-28T21:41:54.573Z,8.71
2018-03-28T21:44:22.831Z,8.78
2018-03-28T21:46:51.072Z,8.68
2018-03-28T21:49:20.548Z,8.65
2018-03-28T21:51:48.807Z,8.68
2018-03-28T21:54:17.062Z,8.68
2018-03-28T21:56:46.071Z,8.75
2018-03-28T21:59:14.368Z,8.68
2018-03-28T22:01:42.612Z,8.79
2018-03-28T22:04:11.633Z,8.72
2018-03-28T22:06:39.876Z,8.62
2018-03-28T22:09:08.280Z,8.59
2018-03-28T22:11:37.288Z,8.62
2018-03-28T22:14:05.539Z,8.51
2018-03-28T22:16:34.555Z,8.54
2018-03-28T22:19:02.808Z,8.56
2018-03-28T22:21:31.065Z,8.62
2018-03-28T22:23:59.306Z,8.66
2018-03-28T22:26:27.561Z,8.58
2018-03-28T22:28:56.572Z,8.53
2018-03-28T22:31:25.396Z,8.53
2018-03-28T22:33:53.644Z,8.52
2018-03-28T22:36:22.662Z,8.61
2018-03-28T22:38:50.909Z,8.56
2018-03-28T22:41:19.916Z,8.56
2018-03-28T22:43:48.925Z,8.52
2018-03-28T22:46:17.199Z,8.38
2018-03-28T22:48:46.213Z,8.48
2018-03-28T22:51:15.096Z,8.43
2018-03-28T22:53:43.343Z,8.40
2018-03-28T22:56:11.602Z,8.37
2018-03-28T22:58:39.849Z,8.47
2018-03-28T23:01:08.106Z,8.37
2018-03-28T23:03:36.689Z,8.32
2018-03-28T23:06:05.819Z,8.26
2018-03-28T23:08:34.070Z,8.14
2018-03-28T23:11:03.072Z,8.17
2018-03-28T23:13:32.090Z,8.15
2018-03-28T23:16:00.396Z,8.07
2018-03-28T23:18:29.349Z,8.10
2018-03-28T23:20:58.359Z,7.97
2018-03-28T23:23:26.607Z,8.01
2018-03-28T23:25:54.850Z,7.99
2018-03-28T23:28:23.107Z,7.98
2018-03-28T23:30:51.354Z,7.96
2018-03-28T23:33:20.377Z,7.91
2018-03-28T23:35:49.277Z,7.91
2018-03-28T23:38:17.541Z,7.92
2018-03-28T23:40:46.560Z,7.81
2018-03-28T23:43:14.820Z,7.89
2018-03-28T23:45:43.828Z,7.86
2018-03-28T23:48:12.076Z,7.86
2018-03-28T23:50:40.321Z,7.82
2018-03-28T23:53:08.568Z,7.77
2018-03-28T23:55:36.822Z,7.79
2018-03-28T23:58:05.837Z,7.84
